Aeroporto :
LOGIN :

Iscrizione | Disclaimer

   EN    FR    IT 

 










Sommario :    VFR   VFR Marginale   IFR   IFR Intensivo   IFR Molto Intensivo
Visibilità : 
Base nubi : 
>= 8 km
>= 3000ft
5 / 8 km
1000 / 3000 ft
1500m / 5 km
500 / 1000 ft
800 / 1500m
200 / 500 ft
< 800m
< 200 ft
Simboli :   Temporali  Nebbia  Neve Forte  Precipitazioni Forti  Vento > 20 kt
SIGMETs :   Varie  Temporali  Ghiacco  Turbolenza  Onda orograficha  Ceneri Vulcaniche






- Altitudine del aeroporto : 502 ft
- Codice IATA : ORK


EICK - Cork

ULTIMO METAR :
  • 072330Z 15005KT 0600 R16/0700N R34/0750N FG SCT001 BKN002 07/07 Q1025 TEMPO 0200 BKN001

METARs OBSOLETI :
  • 072300Z 16003KT 0500 R16/0650NU R34/0500N FG SCT001 BKN002 07/07 Q1025 TEMPO 0200 BKN001
  • 072230Z 17003KT 0600 R16/0700D R34/0600N FG SCT001 BKN002 07/07 Q1025 TEMPO 0200 BKN001
  • 072200Z 18005KT 140V210 0600 R16/0600N R34/0700N FG BKN002 07/07 Q1025 TEMPO 0200 BKN001
  • 072130Z 18004KT 140V200 1600 BR BKN002 07/06 Q1025 TEMPO 0300 FG BKN001
  • 072100Z 15003KT 9999 SCT002 06/06 Q1025 NOSIG

TAF TAF EICK
Valido dal 08 a 00 ore il 09 a 00 ore UTC


072300Z 0800/0824 VRB03KT 0800 FG BKN002
TEMPO 0800/0808 0200 BKN001
BECMG 0808/0810 9999 NSW FEW003
BECMG 0810/0812 14007KT
BECMG 0821/0823 VRB03KT



MetMap, La meteo Aeronautica in un colpo d'occhio ! - Copyright ORBIFLY Dicembre 2007 - Disclaimer

ORBIFLY MET'MAP TEAM :

Programmazione e sviluppo : Alexandra Zaïnal
Concezione : Baudouin d'Aumeries
Aiuto per la programmazione : Marc-Olivier Méhu
Supporto tecnico e logistico : Manuel Goepfert
Aiuto per la traduzione : Arnaldo La Scala

Contatto : metmap@orbifly.com




FONTI E CREDITI :

   NOAA